Station Historical Data
Daily Summary for June 1, 2012 Units:  English    Metric   Both
« Previous Day
Next Day »
Daily Weekly Monthly Yearly Custom
  High: Low: Average:
Temperature: 66.2 °F 54.0 °F 61.5 °F
Dew Point: 64.1 °F 52.3 °F 56.5 °F
Humidity: 95% 65% 84%
Wind Speed: 15.0mph 0.0mph 4.6mph
Wind Gust: 18.0mph - -
Wind- - West
Pressure: 29.92 in 29.67 in -
Precipitation: 0.05 in    
Historical Graphs
 
 
Tabular Data for June 1, 2012
Time Temperature Dew Point Pressure Wind Wind Speed Wind Gust Humidity Rainfall Rate (Hourly) Conditions
00:00 65.5 °F 62.5 °F 29.70 in SSE 2.0 mph 6.0 mph 90% 0.00 in
00:05 65.5 °F 62.5 °F 29.71 in SSE 1.0 mph 3.0 mph 90% 0.00 in
00:10 65.5 °F 62.5 °F 29.71 in West 1.0 mph 2.0 mph 90% 0.00 in
00:15 65.6 °F 62.9 °F 29.71 in Calm   2.0 mph 91% 0.00 in
00:20 65.6 °F 62.9 °F 29.72 in SSW 1.0 mph 2.0 mph 91% 0.00 in
00:25 65.7 °F 63.0 °F 29.72 in WSW 1.0 mph 2.0 mph 91% 0.00 in
00:31 65.7 °F 63.0 °F 29.73 in Calm   1.0 mph 91% 0.00 in
00:36 65.6 °F 62.9 °F 29.73 in Calm     91% 0.00 in
00:41 65.6 °F 62.9 °F 29.73 in West 1.0 mph 2.0 mph 91% 0.00 in
00:46 65.6 °F 62.9 °F 29.73 in West 1.0 mph 3.0 mph 91% 0.00 in
00:51 65.6 °F 62.9 °F 29.73 in SW 3.0 mph 3.0 mph 91% 0.00 in
00:56 65.6 °F 62.9 °F 29.73 in SW 2.0 mph 3.0 mph 91% 0.00 in
01:01 65.6 °F 62.9 °F 29.72 in SSW 1.0 mph 3.0 mph 91% 0.00 in
01:06 65.5 °F 63.1 °F 29.72 in SW 2.0 mph 3.0 mph 92% 0.00 in
01:11 65.6 °F 63.2 °F 29.72 in SW 3.0 mph 5.0 mph 92% 0.00 in
01:16 65.6 °F 63.2 °F 29.71 in SSE 1.0 mph 2.0 mph 92% 0.00 in
01:21 65.6 °F 63.2 °F 29.72 in SW 2.0 mph 5.0 mph 92% 0.00 in
01:26 65.6 °F 62.9 °F 29.71 in SSW 2.0 mph 5.0 mph 91% 0.00 in
01:31 65.6 °F 62.9 °F 29.71 in WSW 3.0 mph 5.0 mph 91% 0.00 in
01:36 65.6 °F 62.9 °F 29.71 in SSW 2.0 mph 5.0 mph 91% 0.00 in
01:41 65.6 °F 62.9 °F 29.70 in SSW 4.0 mph 7.0 mph 91% 0.00 in
01:46 65.6 °F 62.9 °F 29.70 in SW 2.0 mph 7.0 mph 91% 0.00 in
01:51 65.6 °F 62.9 °F 29.70 in WSW 3.0 mph 5.0 mph 91% 0.00 in
01:56 65.6 °F 62.9 °F 29.70 in SW 4.0 mph 5.0 mph 91% 0.00 in
02:01 65.6 °F 62.9 °F 29.70 in SSW 5.0 mph 6.0 mph 91% 0.00 in
02:06 65.6 °F 62.9 °F 29.69 in SSW 1.0 mph 3.0 mph 91% 0.00 in
02:11 65.6 °F 62.9 °F 29.69 in SW 3.0 mph 4.0 mph 91% 0.00 in
02:16 65.5 °F 63.1 °F 29.69 in WSW 2.0 mph 3.0 mph 92% 0.00 in
02:21 65.5 °F 63.1 °F 29.69 in SSW 3.0 mph 4.0 mph 92% 0.00 in
02:26 65.5 °F 63.1 °F 29.69 in SSW 2.0 mph 4.0 mph 92% 0.00 in
02:31 65.5 °F 63.1 °F 29.69 in SSW 1.0 mph 3.0 mph 92% 0.00 in
02:36 65.4 °F 63.0 °F 29.69 in SSE 3.0 mph 3.0 mph 92% 0.00 in
02:41 65.4 °F 63.0 °F 29.69 in SW 4.0 mph 4.0 mph 92% 0.00 in
02:46 65.4 °F 63.0 °F 29.68 in SSE 3.0 mph 4.0 mph 92% 0.00 in
02:51 65.4 °F 63.0 °F 29.68 in SSW 2.0 mph 5.0 mph 92% 0.00 in
02:56 65.4 °F 63.0 °F 29.69 in SW 3.0 mph 5.0 mph 92% 0.00 in
03:01 65.5 °F 63.1 °F 29.68 in SW 7.0 mph 7.0 mph 92% 0.00 in
03:06 65.6 °F 63.2 °F 29.69 in SW 3.0 mph 8.0 mph 92% 0.00 in
03:11 65.6 °F 63.2 °F 29.68 in SW 7.0 mph 8.0 mph 92% 0.00 in
03:16 65.7 °F 63.3 °F 29.68 in SSW 1.0 mph 8.0 mph 92% 0.00 in
03:22 65.8 °F 63.7 °F 29.68 in SW 5.0 mph 7.0 mph 93% 0.00 in
03:27 65.8 °F 63.4 °F 29.68 in SSW 4.0 mph 7.0 mph 92% 0.00 in
03:32 65.9 °F 63.8 °F 29.68 in SW 7.0 mph 9.0 mph 93% 0.00 in
03:37 65.9 °F 63.8 °F 29.68 in SSW 5.0 mph 7.0 mph 93% 0.00 in
03:42 66.0 °F 63.9 °F 29.68 in SW 5.0 mph 11.0 mph 93% 0.00 in
03:47 66.0 °F 63.9 °F 29.68 in South 7.0 mph 10.0 mph 93% 0.00 in
03:52 66.1 °F 64.0 °F 29.67 in SSW 8.0 mph 11.0 mph 93% 0.00 in
03:57 66.2 °F 64.1 °F 29.68 in WSW 3.0 mph 8.0 mph 93% 0.00 in
04:02 66.2 °F 64.1 °F 29.68 in WSW 4.0 mph 9.0 mph 93% 0.00 in
04:07 66.2 °F 64.1 °F 29.67 in WSW 6.0 mph 8.0 mph 93% 0.00 in
04:12 66.2 °F 64.1 °F 29.67 in SW 6.0 mph 10.0 mph 93% 0.00 in
04:17 66.1 °F 64.0 °F 29.67 in WSW 6.0 mph 10.0 mph 93% 0.00 in
04:22 66.0 °F 63.9 °F 29.68 in WSW 6.0 mph 9.0 mph 93% 0.00 in
04:27 65.9 °F 63.8 °F 29.68 in SW 5.0 mph 7.0 mph 93% 0.00 in
04:32 65.9 °F 64.1 °F 29.68 in WSW 5.0 mph 7.0 mph 94% 0.00 in
04:37 65.8 °F 64.0 °F 29.68 in WSW 2.0 mph 6.0 mph 94% 0.00 in
04:42 65.8 °F 64.0 °F 29.68 in WSW 3.0 mph 8.0 mph 94% 0.00 in
04:47 65.8 °F 64.0 °F 29.67 in WSW 3.0 mph 9.0 mph 94% 0.00 in
04:52 65.7 °F 63.9 °F 29.68 in WSW 5.0 mph 7.0 mph 94% 0.09 in
04:57 65.6 °F 63.8 °F 29.68 in NW 10.0 mph 18.0 mph 94% 0.47 in
05:02 63.5 °F 61.1 °F 29.69 in NW 15.0 mph 16.0 mph 92% 0.10 in
05:07 61.9 °F 59.9 °F 29.69 in NW 8.0 mph 17.0 mph 93% 0.10 in
05:12 61.2 °F 59.2 °F 29.70 in WNW 11.0 mph 13.0 mph 93% 0.06 in
05:17 60.8 °F 58.8 °F 29.70 in NW 8.0 mph 13.0 mph 93% 0.04 in
05:22 60.7 °F 58.7 °F 29.70 in WNW 9.0 mph 11.0 mph 93% 0.00 in
05:27 60.7 °F 58.7 °F 29.70 in NNW 5.0 mph 13.0 mph 93% 0.00 in
05:32 60.6 °F 58.6 °F 29.70 in NW 8.0 mph 10.0 mph 93% 0.00 in
05:38 60.6 °F 58.6 °F 29.70 in West 6.0 mph 8.0 mph 93% 0.00 in
05:43 60.5 °F 58.5 °F 29.70 in NW 3.0 mph 6.0 mph 93% 0.00 in
05:48 60.4 °F 58.7 °F 29.70 in NW 3.0 mph 4.0 mph 94% 0.00 in
05:53 60.4 °F 58.7 °F 29.70 in NW 2.0 mph 5.0 mph 94% 0.00 in
05:58 60.3 °F 58.6 °F 29.71 in NW 3.0 mph 6.0 mph 94% 0.00 in
06:03 60.3 °F 58.6 °F 29.71 in NW 2.0 mph 6.0 mph 94% 0.00 in
06:08 60.3 °F 58.6 °F 29.71 in WNW 4.0 mph 6.0 mph 94% 0.00 in
06:13 60.3 °F 58.6 °F 29.71 in WNW 4.0 mph 5.0 mph 94% 0.00 in
06:18 60.3 °F 58.6 °F 29.71 in NW 4.0 mph 5.0 mph 94% 0.00 in
06:23 60.3 °F 58.6 °F 29.71 in WNW 2.0 mph 4.0 mph 94% 0.00 in
06:28 60.3 °F 58.6 °F 29.71 in WNW 4.0 mph 4.0 mph 94% 0.00 in
06:33 60.2 °F 58.5 °F 29.72 in WNW 2.0 mph 5.0 mph 94% 0.00 in
06:38 60.2 °F 58.5 °F 29.72 in NW 3.0 mph 5.0 mph 94% 0.00 in
06:43 60.2 °F 58.5 °F 29.73 in WNW 4.0 mph 6.0 mph 94% 0.00 in
06:48 60.2 °F 58.5 °F 29.73 in West 7.0 mph 8.0 mph 94% 0.00 in
06:53 60.1 °F 58.4 °F 29.73 in WNW 5.0 mph 8.0 mph 94% 0.00 in
06:58 60.1 °F 58.4 °F 29.73 in WNW 2.0 mph 7.0 mph 94% 0.00 in
07:03 60.1 °F 58.4 °F 29.73 in WNW 2.0 mph 6.0 mph 94% 0.00 in
07:08 60.0 °F 58.3 °F 29.74 in WNW 6.0 mph 6.0 mph 94% 0.00 in
07:13 60.0 °F 58.3 °F 29.74 in WNW 2.0 mph 6.0 mph 94% 0.00 in
07:18 59.9 °F 58.2 °F 29.74 in WNW 5.0 mph 8.0 mph 94% 0.00 in
07:23 59.8 °F 58.1 °F 29.74 in WNW 4.0 mph 9.0 mph 94% 0.00 in
07:28 59.8 °F 57.8 °F 29.75 in WNW 4.0 mph 6.0 mph 93% 0.00 in
07:33 59.8 °F 57.8 °F 29.75 in WNW 4.0 mph 9.0 mph 93% 0.00 in
07:38 59.9 °F 57.9 °F 29.75 in WNW 3.0 mph 7.0 mph 93% 0.00 in
07:43 59.9 °F 57.9 °F 29.75 in WNW 5.0 mph 6.0 mph 93% 0.00 in
07:48 60.0 °F 58.0 °F 29.75 in NW 3.0 mph 6.0 mph 93% 0.00 in
07:53 59.9 °F 57.9 °F 29.75 in WNW 6.0 mph 11.0 mph 93% 0.00 in
07:58 59.9 °F 57.9 °F 29.76 in WNW 6.0 mph 8.0 mph 93% 0.00 in
08:03 60.0 °F 58.0 °F 29.76 in NW 4.0 mph 6.0 mph 93% 0.00 in
08:08 60.1 °F 58.1 °F 29.76 in West 4.0 mph 7.0 mph 93% 0.00 in
08:13 59.8 °F 57.5 °F 29.77 in WNW 8.0 mph 11.0 mph 92% 0.00 in
08:18 59.5 °F 57.2 °F 29.77 in WNW 8.0 mph 11.0 mph 92% 0.00 in
08:24 59.1 °F 56.8 °F 29.78 in WNW 11.0 mph 11.0 mph 92% 0.00 in
08:29 59.0 °F 56.4 °F 29.78 in WNW 11.0 mph 13.0 mph 91% 0.00 in
08:34 58.9 °F 56.6 °F 29.78 in NW 7.0 mph 13.0 mph 92% 0.00 in
08:39 58.8 °F 56.2 °F 29.78 in WNW 8.0 mph 14.0 mph 91% 0.00 in
08:44 58.6 °F 56.0 °F 29.79 in WNW 11.0 mph 11.0 mph 91% 0.00 in
08:49 58.4 °F 55.8 °F 29.79 in WNW 6.0 mph 11.0 mph 91% 0.00 in
08:54 58.4 °F 55.8 °F 29.80 in WNW 7.0 mph 11.0 mph 91% 0.00 in
08:59 58.2 °F 55.3 °F 29.80 in West 4.0 mph 12.0 mph 90% 0.00 in
09:04 57.9 °F 55.0 °F 29.81 in WSW 9.0 mph 9.0 mph 90% 0.00 in
09:09 57.6 °F 54.7 °F 29.81 in WNW 4.0 mph 13.0 mph 90% 0.00 in
09:14 57.6 °F 55.0 °F 29.81 in WNW 6.0 mph 10.0 mph 91% 0.00 in
09:19 57.5 °F 54.9 °F 29.81 in NW 10.0 mph 10.0 mph 91% 0.00 in
09:24 57.8 °F 54.9 °F 29.81 in NW 10.0 mph 12.0 mph 90% 0.00 in
09:29 57.8 °F 54.9 °F 29.81 in West 4.0 mph 13.0 mph 90% 0.00 in
09:34 58.3 °F 54.8 °F 29.81 in WNW 8.0 mph 11.0 mph 88% 0.00 in
09:39 58.4 °F 54.5 °F 29.81 in West 6.0 mph 10.0 mph 87% 0.00 in
09:44 58.2 °F 54.7 °F 29.82 in NW 7.0 mph 10.0 mph 88% 0.00 in
09:49 58.1 °F 54.3 °F 29.82 in NW 6.0 mph 9.0 mph 87% 0.00 in
09:54 58.7 °F 54.8 °F 29.82 in NW 8.0 mph 12.0 mph 87% 0.00 in
09:59 59.3 °F 55.1 °F 29.82 in WNW 4.0 mph 12.0 mph 86% 0.00 in
10:04 60.2 °F 55.3 °F 29.82 in NW 12.0 mph 12.0 mph 84% 0.00 in
10:09 60.4 °F 54.9 °F 29.82 in WNW 8.0 mph 12.0 mph 82% 0.00 in
10:14 61.0 °F 55.8 °F 29.82 in NW 8.0 mph 14.0 mph 83% 0.00 in
10:19 60.3 °F 54.8 °F 29.82 in NW 6.0 mph 14.0 mph 82% 0.00 in
10:24 60.0 °F 55.2 °F 29.83 in NW 9.0 mph 10.0 mph 84% 0.00 in
10:29 60.1 °F 54.9 °F 29.83 in NW 10.0 mph 10.0 mph 83% 0.00 in
10:34 60.3 °F 53.8 °F 29.83 in NW 7.0 mph 15.0 mph 79% 0.00 in
10:39 60.5 °F 53.6 °F 29.83 in WNW 14.0 mph 17.0 mph 78% 0.00 in
10:44 60.4 °F 54.2 °F 29.83 in NW 10.0 mph 12.0 mph 80% 0.00 in
10:49 60.9 °F 54.3 °F 29.83 in NW 7.0 mph 10.0 mph 79% 0.00 in
10:54 60.8 °F 53.9 °F 29.83 in NW 8.0 mph 11.0 mph 78% 0.00 in
10:59 60.6 °F 53.4 °F 29.83 in West 7.0 mph 11.0 mph 77% 0.00 in
11:04 60.9 °F 53.3 °F 29.83 in NW 9.0 mph 13.0 mph 76% 0.00 in
11:09 61.0 °F 53.8 °F 29.83 in NW 9.0 mph 14.0 mph 77% 0.00 in
11:14 60.7 °F 53.5 °F 29.83 in NW 10.0 mph 12.0 mph 77% 0.00 in
11:19 61.1 °F 54.2 °F 29.83 in WNW 6.0 mph 8.0 mph 78% 0.00 in
11:24 62.0 °F 54.4 °F 29.83 in WNW 7.0 mph 9.0 mph 76% 0.00 in
11:29 61.6 °F 54.0 °F 29.84 in WSW 7.0 mph 9.0 mph 76% 0.00 in
11:34 61.6 °F 54.3 °F 29.84 in NW 7.0 mph 8.0 mph 77% 0.00 in
11:40 61.4 °F 53.0 °F 29.84 in NW 9.0 mph 10.0 mph 74% 0.00 in
11:45 61.5 °F 53.9 °F 29.84 in WNW 7.0 mph 11.0 mph 76% 0.00 in
11:50 61.2 °F 52.9 °F 29.84 in West 5.0 mph 11.0 mph 74% 0.00 in
11:55 61.9 °F 53.9 °F 29.85 in WNW 6.0 mph 11.0 mph 75% 0.00 in
12:00 62.0 °F 52.9 °F 29.85 in WNW 10.0 mph 16.0 mph 72% 0.00 in
12:05 61.6 °F 53.6 °F 29.85 in WNW 6.0 mph 12.0 mph 75% 0.00 in
12:10 61.6 °F 53.6 °F 29.85 in WNW 9.0 mph 12.0 mph 75% 0.00 in
12:15 61.7 °F 53.7 °F 29.85 in West 5.0 mph 12.0 mph 75% 0.00 in
12:20 62.3 °F 53.5 °F 29.85 in NW 5.0 mph 12.0 mph 73% 0.00 in
12:25 62.4 °F 54.4 °F 29.85 in West 8.0 mph 12.0 mph 75% 0.00 in
12:30 61.8 °F 53.4 °F 29.86 in NW 6.0 mph 14.0 mph 74% 0.00 in
12:35 61.0 °F 52.7 °F 29.86 in WNW 9.0 mph 13.0 mph 74% 0.00 in
12:40 60.6 °F 53.7 °F 29.86 in NW 5.0 mph 14.0 mph 78% 0.00 in
12:45 61.0 °F 54.5 °F 29.86 in WNW 13.0 mph 13.0 mph 79% 0.00 in
12:50 61.0 °F 52.7 °F 29.86 in West 10.0 mph 13.0 mph 74% 0.00 in
12:55 61.1 °F 53.1 °F 29.86 in WNW 9.0 mph 11.0 mph 75% 0.00 in
13:00 60.8 °F 52.8 °F 29.86 in West 9.0 mph 14.0 mph 75% 0.00 in
13:05 60.6 °F 52.6 °F 29.86 in WNW 6.0 mph 11.0 mph 75% 0.00 in
13:10 60.4 °F 52.8 °F 29.87 in WNW 8.0 mph 13.0 mph 76% 0.00 in
13:15 60.1 °F 52.9 °F 29.87 in NW 3.0 mph 12.0 mph 77% 0.00 in
13:20 60.2 °F 53.3 °F 29.87 in WNW 8.0 mph 11.0 mph 78% 0.00 in
13:25 59.8 °F 52.9 °F 29.87 in NW 6.0 mph 9.0 mph 78% 0.00 in
13:30 59.7 °F 53.2 °F 29.87 in WNW 8.0 mph 10.0 mph 79% 0.00 in
13:35 59.6 °F 53.4 °F 29.87 in WNW 6.0 mph 10.0 mph 80% 0.00 in
13:40 59.9 °F 53.4 °F 29.87 in WNW 9.0 mph 11.0 mph 79% 0.00 in
13:45 59.9 °F 53.7 °F 29.87 in NW 5.0 mph 7.0 mph 80% 0.00 in
13:50 60.2 °F 53.3 °F 29.87 in West 7.0 mph 11.0 mph 78% 0.00 in
13:55 60.8 °F 54.3 °F 29.87 in WSW 8.0 mph 10.0 mph 79% 0.00 in
14:00 61.1 °F 53.5 °F 29.87 in WNW 7.0 mph 10.0 mph 76% 0.00 in
14:05 61.1 °F 53.1 °F 29.86 in NW 5.0 mph 12.0 mph 75% 0.00 in
14:10 61.1 °F 53.5 °F 29.86 in NW 6.0 mph 10.0 mph 76% 0.00 in
14:15 60.8 °F 53.9 °F 29.87 in West 8.0 mph 11.0 mph 78% 0.00 in
14:20 60.7 °F 54.2 °F 29.86 in NW 6.0 mph 11.0 mph 79% 0.00 in
14:25 60.8 °F 54.3 °F 29.87 in WNW 6.0 mph 8.0 mph 79% 0.00 in
14:30 61.5 °F 55.3 °F 29.86 in WNW 8.0 mph 8.0 mph 80% 0.00 in
14:35 62.4 °F 55.5 °F 29.86 in West 8.0 mph 9.0 mph 78% 0.00 in
14:41 62.4 °F 54.0 °F 29.86 in NW 8.0 mph 9.0 mph 74% 0.00 in
14:46 62.2 °F 53.5 °F 29.86 in NNW 8.0 mph 8.0 mph 73% 0.00 in
14:51 61.9 °F 53.5 °F 29.86 in WNW 7.0 mph 10.0 mph 74% 0.00 in
14:56 61.7 °F 54.1 °F 29.86 in WNW 5.0 mph 10.0 mph 76% 0.00 in
15:01 61.8 °F 54.5 °F 29.86 in NW 7.0 mph 11.0 mph 77% 0.00 in
15:06 61.4 °F 54.1 °F 29.87 in WNW 4.0 mph 10.0 mph 77% 0.00 in
15:11 61.6 °F 54.7 °F 29.87 in WNW 5.0 mph 10.0 mph 78% 0.00 in
15:16 61.9 °F 54.6 °F 29.87 in WNW 6.0 mph 10.0 mph 77% 0.00 in
15:21 62.4 °F 55.5 °F 29.87 in NW 6.0 mph 11.0 mph 78% 0.00 in
15:26 62.4 °F 54.8 °F 29.87 in West 5.0 mph 10.0 mph 76% 0.00 in
15:31 62.0 °F 54.7 °F 29.87 in NW 5.0 mph 9.0 mph 77% 0.00 in
15:36 61.9 °F 54.3 °F 29.87 in WNW 4.0 mph 10.0 mph 76% 0.00 in
15:41 61.6 °F 54.3 °F 29.87 in NW 4.0 mph 7.0 mph 77% 0.00 in
15:46 61.3 °F 54.0 °F 29.87 in WNW 3.0 mph 8.0 mph 77% 0.00 in
15:51 61.5 °F 54.2 °F 29.88 in WNW 10.0 mph 11.0 mph 77% 0.00 in
15:56 61.6 °F 54.0 °F 29.88 in WNW 5.0 mph 9.0 mph 76% 0.00 in
16:01 61.9 °F 54.3 °F 29.88 in West 12.0 mph 12.0 mph 76% 0.00 in
16:06 61.8 °F 53.8 °F 29.88 in WNW 8.0 mph 10.0 mph 75% 0.00 in
16:11 62.2 °F 55.3 °F 29.87 in NNW 4.0 mph 7.0 mph 78% 0.00 in
16:16 62.6 °F 54.2 °F 29.87 in NNW 9.0 mph 9.0 mph 74% 0.00 in
16:21 62.5 °F 54.8 °F 29.87 in WNW 6.0 mph 8.0 mph 76% 0.00 in
16:26 62.2 °F 54.2 °F 29.87 in WNW 9.0 mph 9.0 mph 75% 0.00 in
16:31 62.1 °F 54.5 °F 29.87 in NNW 4.0 mph 8.0 mph 76% 0.00 in
16:36 62.2 °F 53.8 °F 29.87 in WNW 8.0 mph 10.0 mph 74% 0.00 in
16:41 61.8 °F 54.2 °F 29.87 in NW 5.0 mph 7.0 mph 76% 0.00 in
16:46 61.8 °F 53.4 °F 29.88 in WNW 12.0 mph 12.0 mph 74% 0.00 in
16:51 61.5 °F 53.5 °F 29.88 in WNW 6.0 mph 9.0 mph 75% 0.00 in
16:56 62.0 °F 54.4 °F 29.87 in WNW 6.0 mph 9.0 mph 76% 0.00 in
17:01 63.0 °F 54.6 °F 29.87 in NW 8.0 mph 9.0 mph 74% 0.00 in
17:06 63.0 °F 53.5 °F 29.87 in NW 7.0 mph 12.0 mph 71% 0.00 in
17:11 63.0 °F 53.5 °F 29.87 in West 4.0 mph 7.0 mph 71% 0.00 in
17:17 62.9 °F 53.8 °F 29.86 in WNW 6.0 mph 7.0 mph 72% 0.00 in
17:22 63.0 °F 53.8 °F 29.87 in WNW 6.0 mph 8.0 mph 72% 0.00 in
17:27 63.0 °F 53.8 °F 29.87 in NNW 8.0 mph 9.0 mph 72% 0.00 in
17:32 63.4 °F 54.6 °F 29.87 in WNW 4.0 mph 8.0 mph 73% 0.00 in
17:37 63.5 °F 53.9 °F 29.87 in WNW 8.0 mph 10.0 mph 71% 0.00 in
17:42 64.1 °F 54.5 °F 29.87 in NNW 7.0 mph 10.0 mph 71% 0.00 in
17:47 63.8 °F 53.0 °F 29.87 in NNW 2.0 mph 7.0 mph 68% 0.00 in
17:52 63.7 °F 53.7 °F 29.87 in NW 4.0 mph 7.0 mph 70% 0.00 in
17:57 63.8 °F 53.0 °F 29.87 in NW 4.0 mph 7.0 mph 68% 0.00 in
18:02 64.3 °F 53.1 °F 29.87 in NNW 9.0 mph 9.0 mph 67% 0.00 in
18:07 64.5 °F 52.9 °F 29.87 in NW 6.0 mph 7.0 mph 66% 0.00 in
18:12 64.3 °F 52.3 °F 29.87 in NW 7.0 mph 9.0 mph 65% 0.00 in
18:17 63.7 °F 53.0 °F 29.88 in WNW 7.0 mph 8.0 mph 68% 0.00 in
18:22 63.4 °F 53.1 °F 29.88 in WNW 2.0 mph 6.0 mph 69% 0.00 in
18:27 63.2 °F 52.9 °F 29.88 in NW 3.0 mph 6.0 mph 69% 0.00 in
18:32 63.1 °F 53.2 °F 29.87 in WNW 2.0 mph 5.0 mph 70% 0.00 in
18:37 63.4 °F 53.1 °F 29.88 in NW 2.0 mph 3.0 mph 69% 0.00 in
18:42 64.1 °F 54.1 °F 29.88 in WNW 4.0 mph 5.0 mph 70% 0.00 in
18:47 64.1 °F 53.7 °F 29.88 in WNW 5.0 mph 8.0 mph 69% 0.00 in
18:52 63.4 °F 52.7 °F 29.88 in NW 4.0 mph 6.0 mph 68% 0.00 in
18:57 63.5 °F 53.5 °F 29.87 in WNW 3.0 mph 4.0 mph 70% 0.00 in
19:02 63.9 °F 53.9 °F 29.87 in NNW 3.0 mph 4.0 mph 70% 0.00 in
19:07 64.4 °F 54.0 °F 29.88 in NW 3.0 mph 4.0 mph 69% 0.00 in
19:12 64.5 °F 54.5 °F 29.88 in NNW 4.0 mph 6.0 mph 70% 0.00 in
19:17 64.2 °F 53.4 °F 29.88 in West 4.0 mph 7.0 mph 68% 0.00 in
19:22 64.4 °F 54.4 °F 29.88 in NW 2.0 mph 6.0 mph 70% 0.00 in
19:27 64.5 °F 54.1 °F 29.88 in WNW 2.0 mph 5.0 mph 69% 0.00 in
19:32 64.7 °F 54.3 °F 29.88 in WNW 2.0 mph 4.0 mph 69% 0.00 in
19:37 64.7 °F 53.9 °F 29.88 in WNW 2.0 mph 4.0 mph 68% 0.00 in
19:42 64.6 °F 53.8 °F 29.88 in WNW 5.0 mph 6.0 mph 68% 0.00 in
19:47 64.4 °F 54.0 °F 29.88 in NW 5.0 mph 5.0 mph 69% 0.00 in
19:53 64.0 °F 54.0 °F 29.88 in NW 2.0 mph 4.0 mph 70% 0.00 in
19:58 63.9 °F 54.3 °F 29.88 in NW 2.0 mph 3.0 mph 71% 0.00 in
20:03 64.3 °F 54.7 °F 29.88 in WNW 1.0 mph 2.0 mph 71% 0.00 in
20:08 64.7 °F 55.1 °F 29.87 in East 2.0 mph 2.0 mph 71% 0.00 in
20:13 64.6 °F 54.6 °F 29.86 in East 1.0 mph 2.0 mph 70% 0.00 in
20:18 64.6 °F 53.8 °F 29.87 in Calm   1.0 mph 68% 0.00 in
20:23 65.0 °F 54.6 °F 29.88 in NW 1.0 mph 1.0 mph 69% 0.00 in
20:28 64.3 °F 55.5 °F 29.89 in NW 1.0 mph 2.0 mph 73% 0.00 in
20:33 63.5 °F 55.1 °F 29.89 in Calm     74% 0.00 in
20:38 63.3 °F 54.9 °F 29.89 in WNW 1.0 mph 1.0 mph 74% 0.00 in
20:43 62.5 °F 54.5 °F 29.89 in Calm   1.0 mph 75% 0.00 in
20:48 61.8 °F 54.5 °F 29.89 in Calm     77% 0.00 in
20:53 61.1 °F 54.5 °F 29.89 in Calm     79% 0.00 in
20:58 60.3 °F 54.1 °F 29.90 in WNW 1.0 mph 1.0 mph 80% 0.00 in
21:03 59.5 °F 54.3 °F 29.90 in Calm     83% 0.00 in
21:08 58.9 °F 54.4 °F 29.90 in Calm   1.0 mph 85% 0.00 in
21:13 58.3 °F 54.1 °F 29.90 in Calm   1.0 mph 86% 0.00 in
21:18 57.9 °F 54.4 °F 29.90 in Calm   1.0 mph 88% 0.00 in
21:23 57.6 °F 54.1 °F 29.89 in Calm     88% 0.00 in
21:28 57.6 °F 53.8 °F 29.90 in Calm     87% 0.00 in
21:33 57.2 °F 53.7 °F 29.90 in Calm     88% 0.00 in
21:38 56.7 °F 53.5 °F 29.90 in Calm     89% 0.00 in
21:43 56.3 °F 53.4 °F 29.89 in Calm     90% 0.00 in
21:48 56.1 °F 53.2 °F 29.90 in Calm     90% 0.00 in
21:53 56.1 °F 53.5 °F 29.90 in Calm     91% 0.00 in
21:58 55.9 °F 53.0 °F 29.90 in Calm     90% 0.00 in
22:03 55.5 °F 52.9 °F 29.89 in Calm     91% 0.00 in
22:08 55.8 °F 53.5 °F 29.89 in SE 1.0 mph 1.0 mph 92% 0.00 in
22:13 55.9 °F 53.3 °F 29.89 in Calm     91% 0.00 in
22:18 55.6 °F 53.0 °F 29.89 in Calm     91% 0.00 in
22:23 55.2 °F 52.9 °F 29.90 in Calm     92% 0.00 in
22:29 55.0 °F 53.0 °F 29.90 in SE 1.0 mph 1.0 mph 93% 0.00 in
22:34 55.1 °F 53.1 °F 29.90 in Calm   1.0 mph 93% 0.00 in
22:39 55.0 °F 53.0 °F 29.90 in Calm     93% 0.00 in
22:44 54.7 °F 52.7 °F 29.90 in Calm     93% 0.00 in
22:49 54.6 °F 52.6 °F 29.91 in Calm     93% 0.00 in
22:54 54.6 °F 52.9 °F 29.91 in Calm     94% 0.00 in
22:59 54.5 °F 52.8 °F 29.91 in Calm     94% 0.00 in
23:04 54.7 °F 53.0 °F 29.91 in Calm   1.0 mph 94% 0.00 in
23:09 54.6 °F 52.9 °F 29.91 in North 1.0 mph 1.0 mph 94% 0.00 in
23:14 54.6 °F 52.9 °F 29.91 in Calm     94% 0.00 in
23:19 54.7 °F 53.0 °F 29.91 in Calm   1.0 mph 94% 0.00 in
23:24 54.6 °F 52.9 °F 29.91 in Calm     94% 0.00 in
23:29 54.3 °F 52.6 °F 29.92 in Calm     94% 0.00 in
23:34 54.3 °F 52.6 °F 29.92 in Calm     94% 0.00 in
23:39 54.3 °F 52.6 °F 29.92 in Calm   1.0 mph 94% 0.00 in
23:44 54.3 °F 52.6 °F 29.92 in Calm   1.0 mph 94% 0.00 in
23:49 54.1 °F 52.4 °F 29.92 in Calm     94% 0.00 in
23:54 54.0 °F 52.3 °F 29.92 in Calm     94% 0.00 in
23:59 54.3 °F 52.9 °F 29.92 in Calm     95% 0.00 in
Compliments of Weather Underground